Time;durP1;ratioP1;P1;durP2;ratioP2;P2;SDS_P1;SDS_P2;PMS_P1;PMS_P2;Temp;Humidity;BMP_temperature;BMP_pressure;BME280_temperature;BME280_humidity;BME280_pressure;Samples;Min_cycle;Max_cycle;Signal;HPM_P1;HPM_P2
2022/11/26 00:02:20;;;;;;;17.45;7.60;;;10.30;99.90;;;10.60;85.05;102392.72;5115832;28;20047;-66
2022/11/26 00:04:52;;;;;;;22.25;8.15;;;10.30;99.90;;;10.66;85.40;102389.31;5115712;28;20140;-66
2022/11/26 00:07:25;;;;;;;28.60;7.93;;;10.40;99.90;;;10.70;85.50;102397.31;5115656;28;20483;-66
2022/11/26 00:09:54;;;;;;;27.83;8.30;;;10.40;99.90;;;10.72;85.96;102407.94;5115794;28;20085;-66
2022/11/26 00:12:26;;;;;;;24.70;7.95;;;10.40;99.90;;;10.68;85.84;102379.63;5115238;28;20059;-66
2022/11/26 00:14:54;;;;;;;28.00;8.35;;;10.50;99.90;;;10.75;85.93;102394.75;5115465;28;20043;-66
2022/11/26 00:17:23;;;;;;;24.15;8.57;;;10.50;99.90;;;10.50;85.62;102350.16;5115713;28;20039;-66
2022/11/26 00:19:52;;;;;;;24.23;8.50;;;10.50;99.90;;;10.79;85.55;102396.59;5115554;28;20039;-67
2022/11/26 00:22:25;;;;;;;24.58;7.97;;;10.60;99.90;;;10.85;85.27;102404.66;5114661;28;20043;-66
2022/11/26 00:24:54;;;;;;;22.02;7.40;;;10.60;99.90;;;10.63;85.20;102378.63;5097688;28;20047;-66
2022/11/26 00:27:27;;;;;;;21.33;7.70;;;10.60;99.90;;;10.92;85.16;102400.41;5115344;28;20082;-66
2022/11/26 00:29:56;;;;;;;26.00;8.23;;;10.60;99.90;;;10.95;85.48;102409.28;5115502;28;20134;-66
2022/11/26 00:32:26;;;;;;;24.73;7.43;;;10.70;99.90;;;10.97;85.28;102406.66;5114988;28;20050;-66
2022/11/26 00:34:55;;;;;;;29.17;7.93;;;10.70;99.90;;;10.94;85.47;102410.13;5115055;28;20057;-65
2022/11/26 00:37:28;;;;;;;20.23;7.53;;;10.70;99.90;;;10.89;85.42;102411.81;5114937;28;20032;-66
2022/11/26 00:39:57;;;;;;;26.67;7.60;;;10.60;99.90;;;10.89;85.14;102403.88;5115196;28;20078;-66
2022/11/26 00:42:25;;;;;;;25.42;7.15;;;10.60;99.90;;;10.87;85.29;102416.19;5115082;28;20046;-66
2022/11/26 00:44:53;;;;;;;33.67;8.85;;;10.60;99.90;;;10.82;85.19;102399.28;5114797;28;20046;-66
2022/11/26 00:47:22;;;;;;;32.65;8.30;;;10.60;99.90;;;10.15;84.95;102283.34;5114708;28;20040;-66
2022/11/26 00:49:50;;;;;;;24.83;7.72;;;10.60;99.90;;;10.62;84.57;102380.41;5114697;28;20042;-66
2022/11/26 00:52:33;;;;;;;17.58;6.88;;;10.60;99.90;;;10.49;84.08;102409.25;5114667;28;20043;-66
2022/11/26 00:55:08;;;;;;;17.17;7.25;;;10.40;99.90;;;10.45;84.58;102416.19;5114978;28;20473;-66
2022/11/26 00:57:36;;;;;;;25.55;7.57;;;10.30;99.90;;;10.34;84.96;102414.19;5114650;28;20080;-66
2022/11/26 01:00:16;;;;;;;21.33;7.78;;;10.20;99.90;;;10.33;85.01;102418.59;5115159;28;20096;-66
2022/11/26 01:02:44;;;;;;;16.05;7.05;;;10.10;99.90;;;10.08;85.55;102391.56;5114444;28;20080;-66
2022/11/26 01:05:13;;;;;;;28.58;8.05;;;10.10;99.90;;;10.24;86.14;102425.44;5114400;28;20101;-66
2022/11/26 01:07:44;;;;;;;23.58;7.80;;;10.00;99.90;;;10.20;86.50;102434.19;5096668;28;20075;-66
2022/11/26 01:10:19;;;;;;;22.20;8.13;;;10.00;99.90;;;10.17;87.32;102424.41;5114199;28;20389;-65
2022/11/26 01:12:48;;;;;;;28.90;8.98;;;10.00;99.90;;;10.07;87.07;102421.47;5114317;28;20055;-66
2022/11/26 01:15:18;;;;;;;26.70;8.23;;;9.90;99.90;;;10.10;87.43;102434.81;5114230;28;20473;-66
2022/11/26 01:17:47;;;;;;;29.67;8.98;;;9.90;99.90;;;10.04;87.44;102443.47;5114307;28;20507;-66
2022/11/26 01:20:24;;;;;;;25.25;8.52;;;9.90;99.90;;;9.87;88.12;102439.56;5114122;28;20039;-66
2022/11/26 01:22:56;;;;;;;21.08;8.18;;;9.80;99.90;;;9.78;88.38;102444.59;5114331;28;20499;-66
2022/11/26 01:25:26;;;;;;;26.08;9.18;;;9.70;99.90;;;9.44;89.47;102418.22;5114105;28;20057;-66
2022/11/26 01:27:55;;;;;;;30.70;9.30;;;9.50;99.90;;;9.66;90.24;102449.56;5114476;28;20071;-66
2022/11/26 01:30:26;;;;;;;24.98;9.55;;;9.50;99.90;;;9.68;90.82;102454.06;5113941;28;20083;-66
2022/11/26 01:32:55;;;;;;;29.15;9.52;;;9.50;99.90;;;9.36;91.03;102381.06;5113378;28;20131;-66
2022/11/26 01:35:23;;;;;;;19.73;9.20;;;9.60;99.90;;;9.70;91.21;102441.78;5113639;28;20039;-66
2022/11/26 01:37:51;;;;;;;21.55;8.75;;;9.60;99.90;;;9.60;91.17;102445.03;5113857;28;20493;-66
2022/11/26 01:40:54;;;;;;;24.02;8.40;;;9.50;99.90;;;9.37;91.10;102440.94;5113812;28;20109;-67
2022/11/26 01:43:27;;;;;;;21.48;8.85;;;9.30;99.90;;;8.94;91.38;102409.88;5113660;28;20036;-67
2022/11/26 01:45:56;;;;;;;23.45;8.82;;;9.10;99.90;;;9.31;92.11;102442.53;5114143;28;20148;-66
2022/11/26 01:48:30;;;;;;;20.95;8.88;;;9.20;99.90;;;9.39;92.47;102449.78;5114293;28;20042;-66
2022/11/26 01:51:03;;;;;;;35.40;9.32;;;9.20;99.90;;;9.46;93.05;102435.00;5113793;28;20044;-67
2022/11/26 01:53:39;;;;;;;18.85;8.55;;;9.30;99.90;;;9.50;92.79;102444.78;5113732;28;20054;-67
2022/11/26 01:56:27;;;;;;;24.02;8.52;;;9.40;99.90;;;9.51;92.52;102444.81;5095751;28;20048;-66
2022/11/26 01:59:02;;;;;;;24.77;8.75;;;9.40;99.90;;;9.56;92.19;102445.81;5113630;28;20374;-66
2022/11/26 02:01:32;;;;;;;27.52;9.15;;;9.40;99.90;;;9.54;91.84;102436.97;5113595;28;20511;-66
2022/11/26 02:04:13;;;;;;;24.05;10.05;;;9.40;99.90;;;9.47;91.82;102445.59;5113929;28;20044;-66
2022/11/26 02:06:44;;;;;;;23.15;9.18;;;9.40;99.90;;;9.41;91.55;102445.44;5113835;28;20047;-66
2022/11/26 02:09:13;;;;;;;23.13;8.80;;;9.30;99.90;;;9.28;91.69;102445.97;5113520;28;20407;-66
2022/11/26 02:11:44;;;;;;;25.73;9.27;;;9.20;99.90;;;9.23;91.87;102449.38;5113727;28;20056;-66
2022/11/26 02:14:17;;;;;;;26.95;9.45;;;9.20;99.90;;;9.12;92.82;102438.50;5113396;28;20135;-66
2022/11/26 02:17:13;;;;;;;18.83;8.98;;;9.10;99.90;;;9.06;93.24;102446.25;5113740;28;20051;-66
2022/11/26 02:20:27;;;;;;;30.27;9.70;;;9.10;99.90;;;8.92;93.86;102440.59;5111513;28;20416;-66
2022/11/26 02:23:38;;;;;;;31.13;10.07;;;9.00;99.90;;;9.00;94.78;102451.41;5030415;28;20419;-66
2022/11/26 02:27:01;;;;;;;22.50;9.23;;;9.00;99.90;;;9.01;95.42;102461.09;5112252;28;20093;-66
2022/11/26 02:30:01;;;;;;;26.27;10.40;;;9.00;99.90;;;8.83;95.92;102429.81;5082146;28;20410;-66
2022/11/26 02:32:40;;;;;;;29.17;10.50;;;9.00;99.90;;;9.11;96.10;102468.41;5113869;28;20047;-66
2022/11/26 02:35:16;;;;;;;21.55;9.10;;;9.10;99.90;;;9.24;96.02;102472.25;5113328;28;20048;-66
2022/11/26 02:37:51;;;;;;;25.45;9.15;;;9.10;99.90;;;9.31;95.84;102472.47;5113212;28;20044;-66
2022/11/26 02:40:20;;;;;;;25.90;9.98;;;9.20;99.90;;;9.46;95.60;102472.88;5113265;28;20122;-66
2022/11/26 02:42:48;;;;;;;25.15;10.55;;;9.30;99.90;;;9.45;95.18;102465.78;5094940;28;20039;-66
2022/11/26 02:45:22;;;;;;;25.05;9.93;;;9.30;99.90;;;9.55;94.85;102467.81;5114847;28;20397;-66
2022/11/26 02:47:54;;;;;;;26.25;10.35;;;9.40;99.90;;;9.63;94.68;102465.38;5117248;28;20249;-66
2022/11/26 02:50:27;;;;;;;27.60;10.93;;;9.40;99.90;;;9.64;94.20;102457.47;5117190;28;20481;-66
2022/11/26 02:52:58;;;;;;;22.60;9.30;;;9.40;99.90;;;9.74;94.04;102466.50;5117374;28;20066;-66
2022/11/26 02:55:33;;;;;;;26.13;10.50;;;9.50;99.90;;;9.77;93.65;102463.97;5117072;28;20047;-66
2022/11/26 02:58:02;;;;;;;31.73;10.43;;;9.50;99.90;;;9.80;93.23;102470.22;5116965;28;20044;-66
2022/11/26 03:00:34;;;;;;;25.42;9.70;;;9.60;99.90;;;9.75;93.22;102455.13;5117440;28;20039;-66
2022/11/26 03:03:08;;;;;;;22.63;9.80;;;9.60;99.90;;;9.79;92.93;102476.34;5116800;28;20071;-66
2022/11/26 03:05:40;;;;;;;25.67;9.55;;;9.60;99.90;;;9.89;92.68;102469.56;5116895;28;20404;-66
2022/11/26 03:08:09;;;;;;;26.20;10.18;;;9.60;99.90;;;9.91;92.48;102458.16;5117073;28;20047;-66
2022/11/26 03:10:37;;;;;;;23.27;9.43;;;9.70;99.90;;;9.90;92.30;102469.59;5116770;28;20127;-66
2022/11/26 03:13:05;;;;;;;24.70;10.27;;;9.70;99.90;;;9.93;92.35;102480.22;5098626;28;20405;-66
2022/11/26 03:15:35;;;;;;;25.25;9.52;;;9.70;99.90;;;9.90;92.01;102472.22;5116879;28;20105;-66
2022/11/26 03:18:04;;;;;;;20.33;9.27;;;9.70;99.90;;;9.86;91.74;102459.78;5116879;28;20101;-66
2022/11/26 03:20:32;;;;;;;29.45;11.18;;;9.70;99.90;;;9.98;91.65;102481.25;5117180;28;20484;-66
2022/11/26 03:23:00;;;;;;;23.70;9.68;;;9.70;99.90;;;10.01;91.64;102483.94;5116751;28;20482;-66
2022/11/26 03:25:29;;;;;;;27.67;10.20;;;9.70;99.90;;;10.04;91.62;102481.34;5116339;28;20072;-66
2022/11/26 03:27:57;;;;;;;23.13;9.77;;;9.80;99.90;;;10.01;91.08;102475.13;5116378;28;20396;-66
2022/11/26 03:30:25;;;;;;;24.67;10.60;;;9.70;99.90;;;9.95;90.99;102472.31;5116569;28;20084;-67
2022/11/26 03:32:55;;;;;;;25.85;10.63;;;9.80;99.90;;;9.88;90.82;102462.47;5116207;28;20493;-67
2022/11/26 03:35:24;;;;;;;26.00;10.48;;;9.80;99.90;;;10.06;90.78;102505.22;5116194;28;20130;-66
2022/11/26 03:37:53;;;;;;;23.65;10.95;;;9.80;99.90;;;10.04;90.84;102504.28;5116186;28;20036;-66
2022/11/26 03:40:21;;;;;;;28.75;11.20;;;9.80;99.90;;;10.04;91.24;102507.78;5116433;28;20063;-67
2022/11/26 03:42:49;;;;;;;30.70;12.43;;;9.80;99.90;;;10.04;91.05;102494.56;5116048;28;20040;-66
2022/11/26 03:45:18;;;;;;;27.48;11.20;;;9.80;99.90;;;10.06;91.01;102499.94;5116004;28;20054;-67
2022/11/26 03:47:46;;;;;;;31.25;11.68;;;9.80;99.90;;;10.07;90.95;102506.09;5116616;28;20066;-66
2022/11/26 03:50:16;;;;;;;27.38;10.80;;;9.80;99.90;;;9.88;90.77;102480.97;5115924;28;20071;-66
2022/11/26 03:52:44;;;;;;;24.02;10.85;;;9.80;99.90;;;10.03;90.75;102498.09;5116265;28;20040;-66
2022/11/26 03:55:13;;;;;;;27.83;10.88;;;9.80;99.90;;;10.11;91.16;102503.59;5115839;28;20047;-66
2022/11/26 03:57:41;;;;;;;25.52;10.93;;;9.80;99.90;;;10.12;91.04;102502.75;5096635;28;20135;-66
2022/11/26 04:00:12;;;;;;;31.02;11.90;;;9.90;99.90;;;9.58;91.10;102399.19;5115861;28;20447;-66
2022/11/26 04:02:40;;;;;;;26.30;11.98;;;9.90;99.90;;;10.22;91.26;102502.09;5116377;28;20043;-66
2022/11/26 04:05:09;;;;;;;26.35;11.00;;;9.90;99.90;;;10.26;91.00;102503.94;5115535;28;20070;-66
2022/11/26 04:07:39;;;;;;;30.50;11.63;;;10.00;99.90;;;10.28;91.17;102506.66;5115866;28;20035;-66
2022/11/26 04:10:08;;;;;;;27.65;11.23;;;10.00;99.90;;;9.97;91.17;102446.81;5115377;28;20093;-66
2022/11/26 04:12:37;;;;;;;30.17;11.50;;;10.00;99.90;;;10.36;91.18;102505.94;5115841;28;20451;-66
2022/11/26 04:15:06;;;;;;;26.02;10.40;;;10.10;99.90;;;10.22;90.79;102480.94;5116027;28;20288;-66
2022/11/26 04:17:35;;;;;;;28.58;10.85;;;10.10;99.90;;;10.24;91.05;102495.06;5097467;28;20047;-66
2022/11/26 04:20:04;;;;;;;31.65;12.27;;;10.10;99.90;;;10.38;90.82;102519.19;5115643;28;20031;-66
2022/11/26 04:22:32;;;;;;;24.33;11.50;;;10.10;99.90;;;10.34;90.70;102514.69;5097312;28;20503;-66
2022/11/26 04:25:02;;;;;;;24.20;11.20;;;10.10;99.90;;;10.38;90.77;102511.25;5115177;28;20047;-66
2022/11/26 04:27:31;;;;;;;25.92;11.85;;;10.20;99.90;;;10.33;90.50;102505.00;5097298;28;20138;-66
2022/11/26 04:29:59;;;;;;;30.75;11.40;;;10.10;99.90;;;10.36;90.45;102516.53;5097121;28;20043;-66
2022/11/26 04:32:27;;;;;;;24.42;11.85;;;10.20;99.90;;;10.28;90.51;102507.53;5115390;28;20039;-66
2022/11/26 04:34:56;;;;;;;28.15;11.70;;;10.10;99.90;;;10.12;90.71;102484.25;5115060;28;20046;-66
2022/11/26 04:37:24;;;;;;;31.15;12.57;;;10.00;99.90;;;10.20;90.84;102502.94;5115204;28;20054;-66
2022/11/26 04:39:52;;;;;;;31.63;12.48;;;10.00;99.90;;;9.67;90.53;102422.31;5114959;28;20045;-66
2022/11/26 04:42:22;;;;;;;33.85;12.45;;;10.00;99.90;;;10.07;91.27;102501.69;5115024;28;20039;-66
2022/11/26 04:44:50;;;;;;;31.48;12.75;;;10.00;99.90;;;9.98;91.33;102486.53;5096810;28;20047;-66
2022/11/26 04:47:19;;;;;;;32.38;12.32;;;9.90;99.90;;;10.14;91.59;102510.72;5115576;28;20145;-66
2022/11/26 04:49:47;;;;;;;26.77;12.85;;;10.00;99.90;;;10.21;91.52;102515.28;5115310;28;20036;-66
2022/11/26 04:52:15;;;;;;;26.83;12.55;;;10.00;99.90;;;10.24;91.55;102510.06;5115267;28;20053;-66
2022/11/26 04:54:43;;;;;;;32.30;13.25;;;10.00;99.90;;;10.28;91.41;102527.81;5114939;28;20039;-66
2022/11/26 04:57:12;;;;;;;31.52;13.38;;;10.00;99.90;;;10.26;91.22;102518.94;5114585;28;20118;-66
2022/11/26 04:59:41;;;;;;;30.60;12.55;;;10.00;99.90;;;10.28;90.89;102520.75;5114812;28;20489;-66
2022/11/26 05:02:10;;;;;;;26.48;12.77;;;10.00;99.90;;;9.98;90.77;102489.16;5114618;28;20045;-67
2022/11/26 05:04:38;;;;;;;33.08;13.43;;;10.00;99.90;;;10.10;90.37;102528.25;5114665;28;20037;-66
2022/11/26 05:07:07;;;;;;;27.88;11.85;;;9.90;99.90;;;10.06;90.71;102539.59;5114278;28;20056;-66
2022/11/26 05:09:35;;;;;;;29.30;12.95;;;9.80;99.90;;;9.98;90.66;102542.03;5114325;28;20047;-67
2022/11/26 05:12:04;;;;;;;32.47;13.18;;;9.70;99.90;;;9.97;90.98;102544.63;5114571;28;20055;-66
2022/11/26 05:14:32;;;;;;;32.25;12.90;;;9.70;99.90;;;9.91;91.27;102537.44;5114212;28;20035;-66
2022/11/26 05:17:02;;;;;;;37.60;13.63;;;9.70;99.90;;;9.47;91.63;102464.09;5114492;28;20454;-67
2022/11/26 05:19:30;;;;;;;34.70;13.02;;;9.70;99.90;;;10.07;91.74;102548.38;5114204;28;20131;-66
2022/11/26 05:21:58;;;;;;;42.50;14.45;;;9.80;99.90;;;10.09;91.90;102547.56;5114647;28;20045;-66
2022/11/26 05:24:27;;;;;;;32.92;13.40;;;9.90;99.90;;;10.15;92.19;102554.78;5114454;28;20046;-66
2022/11/26 05:26:55;;;;;;;25.65;13.50;;;9.90;99.90;;;10.21;91.78;102557.59;5114063;28;20089;-66
2022/11/26 05:29:24;;;;;;;29.25;13.50;;;9.90;99.90;;;10.09;91.76;102534.34;5095962;28;20520;-66
2022/11/26 05:31:53;;;;;;;27.02;13.07;;;10.00;99.90;;;10.06;91.17;102522.81;5114592;28;20042;-66
2022/11/26 05:34:22;;;;;;;29.42;13.30;;;10.00;99.90;;;10.13;91.51;102545.94;5113977;28;20047;-66
2022/11/26 05:36:51;;;;;;;30.08;13.90;;;10.00;99.90;;;10.23;91.41;102561.16;5114032;28;20032;-66
2022/11/26 05:39:20;;;;;;;33.80;13.13;;;10.00;99.90;;;10.17;90.96;102556.63;5114029;28;20054;-66
2022/11/26 05:41:49;;;;;;;42.05;15.70;;;9.90;99.90;;;10.15;90.86;102560.09;5113850;28;20028;-67
2022/11/26 05:44:17;;;;;;;38.40;16.33;;;9.90;99.90;;;10.01;91.08;102560.59;5113713;28;20064;-67
2022/11/26 05:46:45;;;;;;;44.33;18.25;;;9.90;99.90;;;9.96;91.37;102562.25;5113675;28;20039;-66
2022/11/26 05:49:14;;;;;;;41.60;17.85;;;9.80;99.90;;;9.86;91.66;102543.47;5114173;28;20044;-66
2022/11/26 05:51:43;;;;;;;38.75;18.80;;;9.70;99.90;;;9.98;91.85;102555.25;5114137;28;20465;-66
2022/11/26 05:54:14;;;;;;;44.95;18.10;;;9.70;99.90;;;9.90;91.96;102532.13;5113657;28;20044;-67
2022/11/26 05:56:43;;;;;;;40.47;19.50;;;9.80;99.90;;;10.07;92.55;102553.66;5113687;28;20373;-67
2022/11/26 05:59:12;;;;;;;45.28;19.15;;;9.80;99.90;;;10.06;92.71;102560.72;5113479;28;20497;-66
2022/11/26 06:01:40;;;;;;;46.95;20.13;;;9.80;99.90;;;10.08;92.74;102564.31;5113831;28;20067;-66
2022/11/26 06:04:08;;;;;;;41.45;18.25;;;9.80;99.90;;;9.90;92.83;102526.84;5113501;28;20628;-66
2022/11/26 06:06:37;;;;;;;41.47;17.27;;;9.90;99.90;;;10.15;92.94;102565.38;5113367;28;20039;-66
2022/11/26 06:09:06;;;;;;;41.45;17.58;;;9.90;99.90;;;10.06;93.14;102536.03;5113457;28;20046;-66
2022/11/26 06:11:35;;;;;;;47.72;18.08;;;9.90;99.90;;;10.22;93.13;102564.69;5113430;28;20051;-66
2022/11/26 06:14:03;;;;;;;40.42;17.13;;;10.00;99.90;;;10.19;93.20;102573.44;5113399;28;20066;-66
2022/11/26 06:16:32;;;;;;;35.08;16.98;;;9.90;99.90;;;10.18;93.07;102562.81;5113464;28;20073;-66
2022/11/26 06:19:00;;;;;;;39.58;17.25;;;9.90;99.90;;;10.19;93.03;102568.13;5113409;28;20104;-66
2022/11/26 06:21:28;;;;;;;36.50;15.60;;;10.00;99.90;;;10.11;93.13;102558.22;5117389;28;20047;-66
2022/11/26 06:23:57;;;;;;;37.17;14.65;;;9.90;99.90;;;10.24;92.73;102565.63;5117555;28;20461;-66
2022/11/26 06:26:28;;;;;;;35.08;15.82;;;10.00;99.90;;;10.29;92.93;102571.91;5117820;28;20493;-66
2022/11/26 06:28:57;;;;;;;44.20;15.63;;;10.10;99.90;;;10.34;92.62;102565.84;5117688;28;20063;-67
2022/11/26 06:31:25;;;;;;;32.55;13.85;;;10.10;99.90;;;10.35;92.65;102572.03;5117746;28;20339;-66
2022/11/26 06:33:54;;;;;;;39.00;13.75;;;10.10;99.90;;;10.36;92.64;102568.53;5117672;28;20071;-66
2022/11/26 06:36:23;;;;;;;37.42;13.40;;;10.10;99.90;;;10.40;92.44;102568.66;5117367;28;20070;-66
2022/11/26 06:38:51;;;;;;;42.08;14.35;;;10.20;99.90;;;10.45;92.57;102574.06;5117289;28;20035;-66
2022/11/26 06:41:20;;;;;;;38.72;14.40;;;10.20;99.90;;;10.43;92.58;102566.06;5117497;28;20045;-66
2022/11/26 06:43:49;;;;;;;37.90;13.80;;;10.30;99.90;;;10.39;92.17;102574.81;5117207;28;20043;-65
2022/11/26 06:46:18;;;;;;;31.90;13.95;;;10.30;99.90;;;10.16;92.41;102583.94;5117327;28;20397;-66
2022/11/26 06:48:46;;;;;;;40.38;14.77;;;10.10;99.90;;;9.72;92.73;102526.34;5117218;28;20035;-66
2022/11/26 06:51:19;;;;;;;38.50;14.18;;;9.90;99.90;;;10.04;93.21;102587.09;5117105;28;20441;-66
2022/11/26 06:53:47;;;;;;;35.95;14.35;;;9.90;99.90;;;9.97;93.19;102584.28;5117234;28;20401;-66
2022/11/26 06:56:17;;;;;;;34.45;13.75;;;9.90;99.90;;;9.96;93.31;102591.34;5117043;28;20121;-66
2022/11/26 06:58:47;;;;;;;38.92;13.82;;;9.90;99.90;;;9.96;93.44;102578.13;5117040;28;20048;-66
2022/11/26 07:01:19;;;;;;;35.97;12.93;;;9.90;99.90;;;10.14;93.27;102604.16;5117139;28;20427;-66
2022/11/26 07:03:48;;;;;;;35.03;13.23;;;10.00;99.90;;;10.11;93.49;102588.19;5117409;28;20048;-65
2022/11/26 07:06:18;;;;;;;31.33;13.18;;;10.00;99.90;;;10.23;93.73;102603.47;5116747;28;20470;-65
2022/11/26 07:08:47;;;;;;;;;;;10.00;99.90;;;9.75;93.70;102515.88;5117314;28;20045;-66
2022/11/26 07:11:16;;;;;;;35.85;13.10;;;10.10;99.90;;;10.34;93.82;102607.28;5116644;28;19927;-66
2022/11/26 07:13:44;;;;;;;36.33;13.38;;;10.10;99.90;;;10.39;93.69;102614.50;5098583;28;20451;-65
2022/11/26 07:16:16;;;;;;;33.25;14.07;;;10.20;99.90;;;10.47;93.69;102601.44;5098671;28;20489;-66
2022/11/26 07:18:48;;;;;;;36.08;12.85;;;10.30;99.90;;;10.46;93.68;102600.53;5116806;28;20040;-66
2022/11/26 07:21:18;;;;;;;33.38;13.15;;;10.30;99.90;;;10.50;93.37;102609.44;5116623;28;20067;-66
2022/11/26 07:23:46;;;;;;;39.33;13.88;;;10.30;99.90;;;10.51;93.59;102609.47;5116979;28;20039;-66
2022/11/26 07:26:15;;;;;;;44.45;14.35;;;10.30;99.90;;;10.58;93.37;102611.41;5116059;28;20043;-66
2022/11/26 07:28:46;;;;;;;41.45;13.43;;;10.40;99.90;;;10.66;92.85;102625.72;5116433;28;20039;-66
2022/11/26 07:31:18;;;;;;;33.17;13.90;;;10.40;99.90;;;10.68;93.01;102628.41;5116260;28;20051;-66
2022/11/26 07:33:48;;;;;;;32.60;12.15;;;10.40;99.90;;;10.73;92.74;102630.28;5116490;28;20074;-66
2022/11/26 07:36:20;;;;;;;32.97;12.75;;;10.50;99.90;;;10.51;92.47;102616.53;5098336;28;20049;-66
2022/11/26 07:38:49;;;;;;;32.85;13.90;;;10.40;99.90;;;10.46;92.39;102624.34;5116260;28;20039;-66
2022/11/26 07:41:20;;;;;;;39.83;14.02;;;10.40;99.90;;;10.33;92.23;102613.44;5115960;28;20508;-66
2022/11/26 07:43:48;;;;;;;34.90;13.73;;;10.30;99.90;;;10.46;92.43;102629.63;5116347;28;20092;-66
2022/11/26 07:46:21;;;;;;;32.03;13.82;;;10.30;99.90;;;10.27;92.19;102587.72;5116068;28;20096;-65
2022/11/26 07:48:50;;;;;;;33.15;13.20;;;10.40;99.90;;;10.28;92.29;102604.50;5116532;28;20127;-66
2022/11/26 07:51:21;;;;;;;32.17;12.70;;;10.30;99.90;;;10.28;92.33;102597.44;5115838;28;20040;-66
2022/11/26 07:53:50;;;;;;;;;;;10.30;99.90;;;10.38;92.53;102641.78;5116359;28;20039;-66
2022/11/26 07:56:19;;;;;;;35.78;14.23;;;10.30;99.90;;;10.38;92.82;102632.94;5116071;28;19920;-66
2022/11/26 07:58:48;;;;;;;31.90;13.35;;;10.30;99.90;;;10.40;93.46;102639.16;5115762;28;20039;-65
2022/11/26 08:01:19;;;;;;;35.75;13.30;;;10.30;99.90;;;10.52;93.57;102628.88;5115709;28;20039;-65
2022/11/26 08:03:50;;;;;;;36.80;12.82;;;10.30;99.90;;;10.63;93.69;102644.16;5115744;28;20047;-65
2022/11/26 08:06:21;;;;;;;41.03;13.30;;;10.40;99.90;;;10.68;93.39;102641.63;5115548;28;20043;-66
2022/11/26 08:08:50;;;;;;;;;;;10.40;99.90;;;10.69;93.41;102635.47;5115766;28;20054;-66
2022/11/26 08:11:21;;;;;;;37.28;13.85;;;10.50;99.90;;;10.62;93.36;102636.19;5115473;28;19919;-66
2022/11/26 08:13:54;;;;;;;36.58;14.20;;;10.50;99.90;;;10.42;93.49;102627.78;5115516;28;20122;-66
2022/11/26 08:16:23;;;;;;;37.63;14.43;;;10.40;99.90;;;10.30;93.54;102647.75;5097397;28;20050;-65
2022/11/26 08:18:57;;;;;;;38.22;14.32;;;10.30;99.90;;;10.31;94.39;102655.72;5115570;28;20051;-66
2022/11/26 08:21:26;;;;;;;40.83;13.50;;;10.20;99.90;;;10.28;94.61;102646.81;5115215;28;20082;-66
2022/11/26 08:23:55;;;;;;;35.22;14.05;;;10.20;99.90;;;10.16;95.03;102639.47;5116104;28;20046;-66
2022/11/26 08:26:25;;;;;;;34.20;13.65;;;10.10;99.90;;;10.31;95.21;102690.09;5096989;28;20075;-66
2022/11/26 08:29:04;;;;;;;34.33;13.60;;;10.20;99.90;;;10.31;95.18;102639.84;5115419;28;20051;-66
2022/11/26 08:31:34;;;;;;;31.98;13.07;;;10.20;99.90;;;10.26;95.85;102648.53;5115110;28;20070;-66
2022/11/26 08:34:07;;;;;;;32.40;13.73;;;10.20;99.90;;;10.36;95.79;102655.81;5115601;28;20094;-66
2022/11/26 08:36:35;;;;;;;34.35;13.70;;;10.20;99.90;;;10.42;95.99;102658.63;5115475;28;20078;-65
2022/11/26 08:39:03;;;;;;;30.98;12.02;;;10.30;99.90;;;10.49;96.02;102664.09;5096766;28;20381;-66
2022/11/26 08:41:32;;;;;;;32.17;13.13;;;10.30;99.90;;;10.36;95.92;102619.69;5096515;28;20135;-66
2022/11/26 08:44:00;;;;;;;41.65;13.60;;;10.40;99.90;;;10.38;95.82;102625.91;5114665;28;20036;-65
2022/11/26 08:46:36;;;;;;;37.40;14.73;;;10.40;99.90;;;10.49;95.92;102635.00;5114624;28;20100;-66
2022/11/26 08:49:06;;;;;;;33.95;13.15;;;10.40;99.90;;;10.60;95.77;102652.03;5115111;28;20035;-66
2022/11/26 08:51:34;;;;;;;41.20;13.60;;;10.40;99.90;;;10.65;95.62;102658.31;5114372;28;20047;-66
2022/11/26 08:54:03;;;;;;;34.35;12.25;;;10.50;99.90;;;10.69;95.49;102659.28;5114824;28;20050;-66
2022/11/26 08:56:33;;;;;;;33.08;12.88;;;10.50;99.90;;;10.38;95.84;102615.34;5114863;28;20044;-66
2022/11/26 08:59:02;;;;;;;31.77;12.60;;;10.50;99.90;;;10.75;95.91;102656.78;5115035;28;20130;-66
2022/11/26 09:01:33;;;;;;;34.22;12.85;;;10.50;99.90;;;10.59;95.87;102636.09;5114181;28;20089;-66
2022/11/26 09:04:04;;;;;;;35.83;12.27;;;10.60;99.90;;;10.86;95.94;102671.16;5114413;28;20043;-66
2022/11/26 09:06:36;;;;;;;39.22;12.75;;;10.60;99.90;;;10.87;95.63;102670.31;5114414;28;20067;-66
2022/11/26 09:09:12;;;;;;;33.35;13.40;;;10.60;99.90;;;10.95;95.61;102667.84;5114404;28;20471;-66
2022/11/26 09:11:45;;;;;;;35.15;12.13;;;10.70;99.90;;;10.96;95.66;102670.53;5114392;28;20047;-66
2022/11/26 09:14:15;;;;;;;33.47;12.93;;;10.70;99.90;;;11.04;95.57;102657.44;5114237;28;20043;-66
2022/11/26 09:16:44;;;;;;;39.95;12.60;;;10.80;99.90;;;11.08;95.44;102654.00;5114568;28;20484;-66
2022/11/26 09:19:15;;;;;;;29.30;11.45;;;10.90;99.90;;;10.82;95.48;102650.78;5113918;28;20047;-66
2022/11/26 09:21:44;;;;;;;30.23;11.85;;;10.80;99.90;;;11.01;95.83;102668.91;5114668;28;20039;-66
2022/11/26 09:24:13;;;;;;;37.08;11.88;;;10.80;99.90;;;10.99;96.06;102657.38;5114641;28;20057;-67
2022/11/26 09:26:41;;;;;;;39.65;12.40;;;10.80;99.90;;;10.97;95.92;102666.13;5114552;28;20043;-65
2022/11/26 09:29:13;;;;;;;34.97;12.77;;;10.80;99.90;;;10.81;96.34;102663.13;5113954;28;20071;-66
2022/11/26 09:31:41;;;;;;;40.22;12.57;;;10.80;99.90;;;10.30;96.83;102564.00;5114290;28;20048;-65
2022/11/26 09:34:31;;;;;;;41.95;13.50;;;10.70;99.90;;;10.90;97.15;102671.28;5113967;28;20035;-66
2022/11/26 09:36:59;;;;;;;41.55;13.40;;;10.80;99.90;;;10.75;97.17;102659.44;5113843;28;20071;-65
2022/11/26 09:39:28;;;;;;;37.45;14.20;;;10.80;99.90;;;10.77;97.55;102655.97;5095507;28;20039;-66
2022/11/26 09:42:05;;;;;;;31.52;12.32;;;10.70;99.90;;;10.21;97.56;102568.16;5113813;28;20460;-66
2022/11/26 09:44:56;;;;;;;32.97;12.75;;;10.70;99.90;;;11.11;97.85;102684.09;5113889;28;20043;-66
2022/11/26 09:47:27;;;;;;;41.05;13.20;;;10.90;99.90;;;11.15;97.04;102666.56;5114092;28;20046;-66
2022/11/26 09:50:06;;;;;;;34.42;13.10;;;10.90;99.90;;;11.46;97.58;102679.56;5113921;28;20035;-66
2022/11/26 09:52:38;;;;;;;38.95;13.02;;;11.20;99.90;;;11.90;98.07;102677.84;5113644;28;20051;-66
2022/11/26 09:55:16;;;;;;;34.33;13.88;;;11.60;99.90;;;12.29;96.95;102673.28;5113028;28;20105;-66
2022/11/26 09:57:51;;;;;;;36.53;12.50;;;12.00;99.90;;;12.52;94.52;102666.63;5113558;28;20142;-66
2022/11/26 10:00:27;;;;;;;33.00;12.68;;;12.30;99.90;;;12.68;92.72;102668.63;5113693;28;20135;-66
2022/11/26 10:02:56;;;;;;;35.70;12.52;;;12.50;99.90;;;12.63;91.81;102638.47;5113458;28;20135;-66
2022/11/26 10:05:47;;;;;;;37.43;11.37;;;12.60;99.90;;;12.79;90.98;102663.50;5113689;28;20126;-65
2022/11/26 10:09:04;;;;;;;35.55;11.15;;;12.60;99.90;;;12.93;90.48;102660.16;5113298;28;20384;-66
2022/11/26 10:11:41;;;;;;;32.40;10.98;;;12.80;99.90;;;12.95;89.80;102674.34;5083073;28;20060;-66
2022/11/26 10:14:32;;;;;;;26.85;11.15;;;12.90;99.90;;;13.01;89.81;102658.50;5113343;28;20196;-66
2022/11/26 10:17:09;;;;;;;;;;;13.00;99.90;;;13.35;88.65;102673.19;5095675;28;20553;-66
2022/11/26 10:19:52;;;;;;;33.40;10.55;;;13.20;99.90;;;13.32;87.83;102655.44;5112300;28;20017;-66
2022/11/26 10:22:28;;;;;;;27.90;10.80;;;13.30;99.90;;;13.62;87.46;102680.63;5113280;28;20047;-65
2022/11/26 10:24:58;;;;;;;27.27;10.32;;;13.50;99.90;;;13.75;86.54;102672.81;5113535;28;20654;-65
2022/11/26 10:27:32;;;;;;;28.48;10.75;;;13.60;99.90;;;13.69;85.59;102672.72;5113317;28;20094;-66